^^
Mint Hill Weather Station Historical Data
 
Daily Summary for July 04, 2015 Units:  English    Metric   Both
« Previous Day
Next Day »
Daily Weekly Monthly Yearly Custom
  Current: High: Low: Average:
Temperature: 81.0 °F 82.7 °F 73.8 °F 75.8 °F
Dew Point: 68.6 °F 70.9 °F 66.9 °F 68.8 °F
Humidity: 66% 85% 65% 79%
Wind Speed: 6.8mph 8.1mph 0.2mph 3.4mph
Wind Gust: 11.5mph 18.4mph - -
WindWest - - WSW
Pressure: 30.01 in 30.01 in 29.92 in -
Precipitation: 0.00 in      
Historical Graphs
 
 
Tabular Data for July 04, 2015
Time Temperature Dew Point Pressure Wind Wind Speed Wind Gust Humidity Rainfall Rate (Hourly) solar Conditions
00:04 75.7 °F 69.8 °F 29.95 in West 6.0 mph 10.0 mph 82% 0.00 in 0.0 W/m2 RA
00:09 75.8 °F 69.9 °F 29.95 in WSW 4.8 mph 6.9 mph 82% 0.00 in 0.0 W/m2 RA
00:14 75.8 °F 69.6 °F 29.95 in West 3.7 mph 12.7 mph 81% 0.00 in 0.0 W/m2 OVC
00:19 75.8 °F 69.6 °F 29.95 in WSW 2.6 mph 4.0 mph 81% 0.00 in 0.0 W/m2 OVC
00:24 75.8 °F 69.6 °F 29.95 in West 7.0 mph 13.0 mph 81% 0.00 in 0.0 W/m2 OVC
00:29 75.8 °F 69.6 °F 29.95 in WSW 1.8 mph 8.1 mph 81% 0.00 in 0.0 W/m2 OVC
00:34 75.8 °F 69.6 °F 29.95 in West 3.0 mph 13.0 mph 81% 0.00 in 0.0 W/m2 OVC
00:39 75.7 °F 69.5 °F 29.95 in SW 2.2 mph 6.9 mph 81% 0.00 in 0.0 W/m2 OVC
00:44 75.7 °F 69.4 °F 29.95 in WSW 3.0 mph 13.0 mph 81% 0.00 in 0.0 W/m2 OVC
00:49 75.5 °F 69.3 °F 29.95 in West 2.7 mph 8.0 mph 81% 0.00 in 0.0 W/m2 OVC
00:54 75.5 °F 69.3 °F 29.95 in WSW 2.0 mph 12.0 mph 81% 0.00 in 0.0 W/m2 OVC
00:59 75.4 °F 69.2 °F 29.95 in WSW 5.0 mph 12.0 mph 81% 0.00 in 0.0 W/m2 OVC
01:04 75.3 °F 69.1 °F 29.95 in SSW 5.3 mph 5.3 mph 81% 0.00 in 0.0 W/m2 CLR
01:09 75.3 °F 68.7 °F 29.94 in NW 4.7 mph 15.0 mph 80% 0.00 in 0.0 W/m2 CLR
01:14 75.3 °F 68.7 °F 29.94 in West 6.0 mph 10.0 mph 80% 0.00 in 0.0 W/m2 CLR
01:19 75.3 °F 68.7 °F 29.94 in NNE 4.7 mph 13.8 mph 80% 0.00 in 0.0 W/m2 CLR
01:24 75.3 °F 68.3 °F 29.94 in West 3.0 mph 9.0 mph 79% 0.00 in 0.0 W/m2 CLR
01:29 75.3 °F 68.3 °F 29.94 in NW 5.2 mph 6.9 mph 79% 0.00 in 0.0 W/m2 CLR
01:34 75.2 °F 68.2 °F 29.94 in NW 6.2 mph 10.4 mph 79% 0.00 in 0.0 W/m2 CLR
01:39 75.2 °F 68.2 °F 29.94 in West 5.0 mph 12.0 mph 79% 0.00 in 0.0 W/m2 CLR
01:44 75.2 °F 68.2 °F 29.94 in WSW 2.3 mph 10.0 mph 79% 0.00 in 0.0 W/m2 CLR
01:49 75.2 °F 68.2 °F 29.94 in WSW 5.0 mph 12.0 mph 79% 0.00 in 0.0 W/m2 CLR
01:54 75.2 °F 68.2 °F 29.94 in NW 1.1 mph 3.5 mph 79% 0.00 in 0.0 W/m2 CLR
01:59 75.1 °F 68.1 °F 29.94 in WSW 3.6 mph 7.0 mph 79% 0.00 in 0.0 W/m2 CLR
02:04 75.1 °F 67.8 °F 29.93 in SW 3.0 mph 6.0 mph 78% 0.00 in 0.0 W/m2 CLR
02:09 75.1 °F 67.8 °F 29.93 in SW 4.3 mph 6.9 mph 78% 0.00 in 0.0 W/m2 CLR
02:14 75.1 °F 67.8 °F 29.93 in WSW 1.7 mph 8.1 mph 78% 0.00 in 0.0 W/m2 CLR
02:19 75.0 °F 67.7 °F 29.94 in West 2.3 mph 5.0 mph 78% 0.00 in 0.0 W/m2 CLR
02:24 74.9 °F 67.6 °F 29.93 in WSW 3.6 mph 4.0 mph 78% 0.00 in 0.0 W/m2 CLR
02:29 74.9 °F 67.6 °F 29.93 in West 5.0 mph 10.4 mph 78% 0.00 in 0.0 W/m2 CLR
02:34 74.8 °F 67.5 °F 29.93 in West 2.9 mph 4.6 mph 78% 0.00 in 0.0 W/m2 CLR
02:39 74.7 °F 67.8 °F 29.93 in SW 1.5 mph 3.5 mph 79% 0.00 in 0.0 W/m2 CLR
02:44 74.6 °F 67.7 °F 29.93 in SW 1.6 mph 6.0 mph 79% 0.00 in 0.0 W/m2 CLR
02:49 74.6 °F 67.7 °F 29.93 in WSW 2.7 mph 4.6 mph 79% 0.00 in 0.0 W/m2 CLR
02:54 74.5 °F 67.6 °F 29.92 in West 2.8 mph 4.6 mph 79% 0.00 in 0.0 W/m2 CLR
02:59 74.4 °F 67.5 °F 29.92 in SSW 2.6 mph 4.6 mph 79% 0.00 in 0.0 W/m2 CLR
03:04 74.3 °F 67.4 °F 29.92 in West 2.8 mph 8.1 mph 79% 0.00 in 0.0 W/m2 CLR
03:09 74.3 °F 67.4 °F 29.92 in WNW 3.0 mph 4.6 mph 79% 0.00 in 0.0 W/m2 CLR
03:15 74.3 °F 67.4 °F 29.92 in West 2.6 mph 3.5 mph 79% 0.00 in 0.0 W/m2 CLR
03:20 74.3 °F 67.4 °F 29.92 in WSW 2.0 mph 5.0 mph 79% 0.00 in 0.0 W/m2 CLR
03:25 74.2 °F 67.3 °F 29.93 in West 1.1 mph 2.3 mph 79% 0.00 in 0.0 W/m2 CLR
03:30 74.2 °F 67.3 °F 29.93 in SW 3.7 mph 4.6 mph 79% 0.00 in 0.0 W/m2 CLR
03:35 74.2 °F 67.3 °F 29.93 in WSW 3.2 mph 6.0 mph 79% 0.00 in 0.0 W/m2 CLR
03:40 74.2 °F 67.3 °F 29.93 in WSW 1.6 mph 3.5 mph 79% 0.00 in 0.0 W/m2 CLR
03:45 74.2 °F 67.3 °F 29.93 in WSW 2.4 mph 3.5 mph 79% 0.00 in 0.0 W/m2 CLR
03:50 74.2 °F 67.3 °F 29.93 in SSW 1.2 mph 4.0 mph 79% 0.00 in 0.0 W/m2 CLR
03:55 74.1 °F 67.2 °F 29.93 in SSW 0.7 mph 2.3 mph 79% 0.00 in 0.0 W/m2 CLR
04:05 74.0 °F 67.1 °F 29.94 in SW 1.5 mph 4.6 mph 79% 0.00 in 0.0 W/m2 BKN
04:10 73.9 °F 67.0 °F 29.93 in WNW 2.0 mph 4.0 mph 79% 0.00 in 0.0 W/m2 BKN
04:15 73.8 °F 67.2 °F 29.93 in WSW 0.2 mph 2.0 mph 80% 0.00 in 0.0 W/m2 BKN
04:20 73.8 °F 67.2 °F 29.93 in SSW 2.9 mph 6.9 mph 80% 0.00 in 0.0 W/m2 BKN
04:25 73.8 °F 67.2 °F 29.93 in WSW 1.9 mph 3.5 mph 80% 0.00 in 0.0 W/m2 BKN
04:30 73.8 °F 67.2 °F 29.93 in WSW 2.2 mph 5.0 mph 80% 0.00 in 0.0 W/m2 BKN
04:35 73.8 °F 66.9 °F 29.93 in SW 1.9 mph 3.5 mph 79% 0.00 in 0.0 W/m2 BKN
04:40 73.9 °F 67.0 °F 29.94 in WSW 3.1 mph 5.8 mph 79% 0.00 in 0.0 W/m2 BKN
04:45 73.9 °F 67.0 °F 29.94 in SW 0.9 mph 2.3 mph 79% 0.00 in 0.0 W/m2 BKN
04:50 74.0 °F 67.1 °F 29.94 in SSW 0.3 mph 2.3 mph 79% 0.00 in 0.0 W/m2 BKN
04:55 74.0 °F 67.4 °F 29.94 in SSW 1.2 mph 3.0 mph 80% 0.00 in 0.0 W/m2 BKN
05:00 74.0 °F 67.1 °F 29.94 in SW 3.5 mph 6.9 mph 79% 0.00 in 0.0 W/m2 BKN
05:05 74.1 °F 67.2 °F 29.94 in SW 2.1 mph 3.5 mph 79% 0.00 in 0.0 W/m2 FEW
05:10 74.1 °F 67.2 °F 29.95 in West 2.7 mph 4.6 mph 79% 0.00 in 0.0 W/m2 FEW
05:15 74.1 °F 67.2 °F 29.95 in SW 2.5 mph 4.6 mph 79% 0.00 in 0.0 W/m2 FEW
05:20 74.2 °F 67.3 °F 29.95 in West 0.7 mph 3.5 mph 79% 0.00 in 0.0 W/m2 FEW
05:25 74.1 °F 67.2 °F 29.95 in SW 1.7 mph 3.5 mph 79% 0.00 in 0.0 W/m2 FEW
05:30 74.2 °F 67.3 °F 29.95 in SW 2.7 mph 3.5 mph 79% 0.00 in 0.0 W/m2 FEW
05:35 74.2 °F 67.6 °F 29.95 in SW 1.7 mph 3.5 mph 80% 0.00 in 0.0 W/m2 FEW
05:40 74.2 °F 67.6 °F 29.96 in WSW 1.5 mph 5.0 mph 80% 0.00 in 0.0 W/m2 FEW
05:45 74.1 °F 67.5 °F 29.96 in WNW 4.5 mph 8.1 mph 80% 0.00 in 0.0 W/m2 FEW
05:50 74.1 °F 67.9 °F 29.96 in West 3.8 mph 10.4 mph 81% 0.00 in 0.0 W/m2 FEW
05:55 74.1 °F 68.3 °F 29.95 in NE 0.9 mph 3.5 mph 82% 0.00 in 0.0 W/m2 FEW
06:00 74.0 °F 68.2 °F 29.96 in WNW 2.3 mph 5.8 mph 82% 0.00 in 0.0 W/m2 FEW
06:05 74.0 °F 68.2 °F 29.96 in West 4.6 mph 8.1 mph 82% 0.00 in 0.0 W/m2 CLR
06:10 74.0 °F 68.2 °F 29.96 in WNW 2.2 mph 3.0 mph 82% 0.00 in 6.0 W/m2 CLR
06:15 74.0 °F 68.5 °F 29.96 in West 1.8 mph 4.6 mph 83% 0.00 in 10.8 W/m2 CLR
06:20 74.1 °F 68.6 °F 29.96 in West 3.8 mph 9.2 mph 83% 0.00 in 14.4 W/m2 CLR
06:25 74.1 °F 68.6 °F 29.96 in WSW 4.8 mph 8.1 mph 83% 0.00 in 14.4 W/m2 CLR
06:30 74.1 °F 69.0 °F 29.96 in WSW 1.2 mph 3.0 mph 84% 0.00 in 14.4 W/m2 CLR
06:35 74.1 °F 69.0 °F 29.96 in SE 2.5 mph 5.8 mph 84% 0.00 in 16.8 W/m2 CLR
06:40 74.2 °F 69.1 °F 29.96 in WNW 2.2 mph 5.0 mph 84% 0.00 in 25.2 W/m2 CLR
06:45 74.1 °F 69.3 °F 29.97 in WSW 3.5 mph 8.1 mph 85% 0.00 in 36.0 W/m2 CLR
06:50 74.2 °F 69.4 °F 29.97 in SW 2.3 mph 6.9 mph 85% 0.00 in 38.4 W/m2 CLR
06:55 74.3 °F 69.5 °F 29.97 in WSW 5.7 mph 10.4 mph 85% 0.00 in 39.6 W/m2 CLR
07:00 74.3 °F 69.5 °F 29.97 in West 3.2 mph 8.1 mph 85% 0.00 in 48.0 W/m2 CLR
07:05 74.4 °F 69.6 °F 29.97 in NW 7.1 mph 9.2 mph 85% 0.00 in 48.0 W/m2 SCT
07:10 74.5 °F 69.7 °F 29.97 in West 6.1 mph 10.4 mph 85% 0.00 in 52.8 W/m2 SCT
07:15 74.6 °F 69.8 °F 29.98 in South 4.8 mph 8.1 mph 85% 0.00 in 44.4 W/m2 SCT
07:20 74.7 °F 69.9 °F 29.98 in West 4.9 mph 9.2 mph 85% 0.00 in 48.0 W/m2 SCT
07:25 74.7 °F 69.9 °F 29.98 in West 3.5 mph 13.0 mph 85% 0.00 in 50.4 W/m2 SCT
07:30 74.7 °F 69.9 °F 29.97 in SE 5.5 mph 13.8 mph 85% 0.00 in 56.4 W/m2 SCT
07:35 74.8 °F 69.6 °F 29.97 in WNW 3.9 mph 6.9 mph 84% 0.00 in 67.2 W/m2 SCT
07:40 74.8 °F 69.6 °F 29.97 in NNW 5.1 mph 9.2 mph 84% 0.00 in 74.4 W/m2 SCT
07:45 74.8 °F 70.0 °F 29.97 in WSW 1.9 mph 7.0 mph 85% 0.00 in 67.2 W/m2 SCT
07:50 74.8 °F 70.0 °F 29.97 in WNW 2.2 mph 6.9 mph 85% 0.00 in 72.0 W/m2 SCT
08:00 74.9 °F 69.7 °F 29.97 in West 3.6 mph 6.9 mph 84% 0.00 in 82.8 W/m2 SCT
08:05 74.9 °F 69.7 °F 29.97 in WSW 5.9 mph 9.2 mph 84% 0.00 in 105.6 W/m2 FEW
08:10 75.1 °F 69.9 °F 29.97 in West 6.1 mph 12.7 mph 84% 0.00 in 122.4 W/m2 FEW
08:15 75.3 °F 70.1 °F 29.97 in West 2.8 mph 8.1 mph 84% 0.00 in 147.6 W/m2 FEW
08:20 75.6 °F 70.4 °F 29.97 in West 4.5 mph 8.1 mph 84% 0.00 in 160.8 W/m2 FEW
08:25 75.8 °F 70.3 °F 29.97 in North 5.6 mph 18.4 mph 83% 0.00 in 186.0 W/m2 FEW
08:30 76.1 °F 70.6 °F 29.97 in South 1.8 mph 5.0 mph 83% 0.00 in 181.2 W/m2 FEW
08:35 76.4 °F 70.5 °F 29.96 in SW 4.7 mph 6.9 mph 82% 0.00 in 186.0 W/m2 FEW
08:40 76.5 °F 70.6 °F 29.96 in SW 3.8 mph 6.0 mph 82% 0.00 in 187.2 W/m2 FEW
08:45 76.6 °F 70.3 °F 29.96 in West 3.4 mph 6.9 mph 81% 0.00 in 213.6 W/m2 FEW
08:51 76.8 °F 70.9 °F 29.96 in WNW 5.2 mph 10.4 mph 82% 0.00 in 219.6 W/m2 FEW
08:56 77.0 °F 70.7 °F 29.96 in WNW 2.7 mph 8.0 mph 81% 0.00 in 186.0 W/m2 FEW
09:01 77.1 °F 70.1 °F 29.96 in SW 3.4 mph 10.4 mph 79% 0.00 in 211.2 W/m2 FEW
09:06 77.2 °F 70.5 °F 29.96 in West 5.7 mph 8.1 mph 80% 0.00 in 217.2 W/m2 CLR
09:11 77.4 °F 70.4 °F 29.96 in NNW 1.6 mph 6.9 mph 79% 0.00 in 175.2 W/m2 CLR
09:16 77.4 °F 70.0 °F 29.96 in WNW 8.1 mph 11.5 mph 78% 0.00 in 147.6 W/m2 CLR
09:21 77.3 °F 69.9 °F 29.96 in West 2.4 mph 5.8 mph 78% 0.00 in 189.6 W/m2 CLR
09:26 77.4 °F 70.4 °F 29.97 in NW 2.5 mph 8.1 mph 79% 0.00 in 576.0 W/m2 CLR
09:31 77.6 °F 70.2 °F 29.97 in West 7.1 mph 14.0 mph 78% 0.00 in 523.2 W/m2 CLR
09:36 78.1 °F 70.3 °F 29.97 in SSW 7.7 mph 12.0 mph 77% 0.00 in 537.6 W/m2 CLR
09:41 78.5 °F 70.3 °F 29.97 in SSE 3.9 mph 11.5 mph 76% 0.00 in 292.8 W/m2 CLR
09:46 78.5 °F 70.3 °F 29.97 in WSW 4.1 mph 11.5 mph 76% 0.00 in 240.0 W/m2 CLR
09:51 78.6 °F 70.4 °F 29.98 in NW 4.2 mph 7.0 mph 76% 0.00 in 280.8 W/m2 CLR
09:56 78.8 °F 70.2 °F 29.98 in WNW 3.9 mph 5.8 mph 75% 0.00 in 318.0 W/m2 CLR
10:01 79.1 °F 70.5 °F 29.98 in WSW 3.7 mph 5.8 mph 75% 0.00 in 337.2 W/m2 CLR
10:06 79.4 °F 70.8 °F 29.99 in WNW 1.3 mph 3.5 mph 75% 0.00 in 270.0 W/m2 FEW
10:11 79.5 °F 70.5 °F 29.99 in SW 4.8 mph 8.0 mph 74% 0.00 in 253.2 W/m2 FEW
10:16 79.7 °F 70.3 °F 29.98 in West 2.7 mph 4.6 mph 73% 0.00 in 596.4 W/m2 FEW
10:21 80.7 °F 70.8 °F 29.98 in NW 3.2 mph 5.8 mph 72% 0.00 in 960.0 W/m2 FEW
10:26 81.5 °F 70.3 °F 29.99 in NW 3.8 mph 8.1 mph 69% 0.00 in 316.8 W/m2 FEW
10:32 82.0 °F 70.4 °F 29.98 in SSW 5.4 mph 8.1 mph 68% 0.00 in 1099.2 W/m2 FEW
10:37 82.6 °F 70.5 °F 29.98 in West 5.6 mph 11.5 mph 67% 0.00 in 370.8 W/m2 FEW
10:42 82.7 °F 70.2 °F 29.98 in West 5.5 mph 10.4 mph 66% 0.00 in 344.4 W/m2 FEW
10:47 82.4 °F 69.4 °F 29.99 in WNW 4.5 mph 6.9 mph 65% 0.00 in 283.2 W/m2 FEW
10:52 82.2 °F 69.3 °F 29.99 in WSW 4.0 mph 5.8 mph 65% 0.00 in 291.6 W/m2 FEW
10:57 81.9 °F 69.0 °F 29.99 in WSW 3.3 mph 10.0 mph 65% 0.00 in 333.6 W/m2 FEW
11:02 81.7 °F 68.8 °F 30.00 in West 4.0 mph 11.5 mph 65% 0.00 in 362.4 W/m2 SCT
11:07 81.4 °F 68.5 °F 30.00 in West 5.5 mph 15.0 mph 65% 0.00 in 316.8 W/m2 SCT
11:13 81.0 °F 68.6 °F 30.01 in West 6.8 mph 11.5 mph 66% 0.00 in 300.0 W/m2 SCT
Mint Hill, North Carolina, USA
Compliments of Weather Underground